createdAt,value
2019-05-20T00:01:30.552Z,13.13
2019-05-20T00:04:08.153Z,13.60
2019-05-20T00:06:45.362Z,14.38
2019-05-20T00:09:23.366Z,13.95
2019-05-20T00:12:01.242Z,15.18
2019-05-20T00:14:40.043Z,14.90
2019-05-20T00:17:17.758Z,13.43
2019-05-20T00:19:55.703Z,14.33
2019-05-20T00:22:34.383Z,13.20
2019-05-20T00:25:12.983Z,14.18
2019-05-20T00:27:50.674Z,13.45
2019-05-20T00:30:28.883Z,13.93
2019-05-20T00:33:06.594Z,13.62
2019-05-20T00:35:44.203Z,13.68
2019-05-20T00:38:22.202Z,13.25
2019-05-20T00:41:00.462Z,13.35
2019-05-20T00:43:38.929Z,14.15
2019-05-20T00:46:16.335Z,13.95
2019-05-20T00:48:54.307Z,13.93
2019-05-20T00:51:31.703Z,12.75
2019-05-20T00:54:10.551Z,13.53
2019-05-20T00:56:48.426Z,12.63
2019-05-20T00:59:25.989Z,12.63
2019-05-20T01:02:03.835Z,12.25
2019-05-20T01:04:40.976Z,12.05
2019-05-20T01:07:19.070Z,11.93
2019-05-20T01:09:56.829Z,11.40
2019-05-20T01:12:34.399Z,11.38
2019-05-20T01:15:11.706Z,12.13
2019-05-20T01:17:49.054Z,12.68
2019-05-20T01:20:26.652Z,12.60
2019-05-20T01:23:03.852Z,11.60
2019-05-20T01:25:42.388Z,13.03
2019-05-20T01:28:21.437Z,13.10
2019-05-20T01:30:59.303Z,13.88
2019-05-20T01:33:37.463Z,12.35
2019-05-20T01:36:16.000Z,12.15
2019-05-20T01:38:53.520Z,13.05
2019-05-20T01:41:30.850Z,13.15
2019-05-20T01:44:09.506Z,13.20
2019-05-20T01:46:47.380Z,12.47
2019-05-20T01:49:24.731Z,14.03
2019-05-20T01:52:02.697Z,14.05
2019-05-20T01:54:40.459Z,12.85
2019-05-20T01:57:19.593Z,13.28
2019-05-20T01:59:57.498Z,13.43
2019-05-20T02:02:34.966Z,13.20
2019-05-20T02:05:12.889Z,12.98
2019-05-20T02:07:50.352Z,12.58
2019-05-20T02:10:28.100Z,12.43
2019-05-20T02:13:06.117Z,12.53
2019-05-20T02:15:49.577Z,12.98
2019-05-20T02:18:27.431Z,12.58
2019-05-20T02:21:04.765Z,12.85
2019-05-20T02:23:42.730Z,12.75
2019-05-20T02:26:20.960Z,12.88
2019-05-20T02:28:59.896Z,12.73
2019-05-20T02:31:38.453Z,12.50
2019-05-20T02:34:16.304Z,12.70
2019-05-20T02:36:54.444Z,12.33
2019-05-20T02:39:31.918Z,13.08
2019-05-20T02:42:09.463Z,12.93
2019-05-20T02:44:48.392Z,13.72
2019-05-20T02:47:26.074Z,12.50
2019-05-20T02:50:03.262Z,13.35
2019-05-20T02:52:40.677Z,12.40
2019-05-20T02:55:18.320Z,11.70
2019-05-20T02:57:56.283Z,11.85
2019-05-20T03:00:35.829Z,13.08
2019-05-20T03:03:13.423Z,13.15
2019-05-20T03:05:51.151Z,13.30
2019-05-20T03:08:29.402Z,12.55
2019-05-20T03:11:06.708Z,13.18
2019-05-20T03:13:44.054Z,13.85
2019-05-20T03:16:22.525Z,13.68
2019-05-20T03:19:00.476Z,12.80
2019-05-20T03:21:37.756Z,13.43
2019-05-20T03:24:14.794Z,13.03
2019-05-20T03:26:52.322Z,14.45
2019-05-20T03:29:30.638Z,14.53
2019-05-20T03:32:09.506Z,13.38
2019-05-20T03:34:57.524Z,13.65
2019-05-20T03:37:26.275Z,13.60
2019-05-20T03:40:04.732Z,15.48
2019-05-20T03:42:42.599Z,15.23
2019-05-20T03:45:20.440Z,14.33
2019-05-20T03:47:58.232Z,16.17
2019-05-20T03:50:36.781Z,14.83
2019-05-20T03:53:13.898Z,14.50
2019-05-20T03:55:51.587Z,15.08
2019-05-20T03:58:29.531Z,16.37
2019-05-20T04:01:08.277Z,14.28
2019-05-20T04:03:47.872Z,13.28
2019-05-20T04:06:25.477Z,13.05
2019-05-20T04:09:05.106Z,12.28
2019-05-20T04:11:42.608Z,13.45
2019-05-20T04:14:19.863Z,12.82
2019-05-20T04:17:00.023Z,12.88
2019-05-20T04:19:37.734Z,12.85
2019-05-20T04:22:15.164Z,13.60
2019-05-20T04:24:52.894Z,13.83
2019-05-20T04:27:31.353Z,13.60
2019-05-20T04:30:09.320Z,14.28
2019-05-20T04:32:46.943Z,14.05
2019-05-20T04:35:25.251Z,13.90
2019-05-20T04:38:02.633Z,13.20
2019-05-20T04:40:40.204Z,13.18
2019-05-20T04:43:19.425Z,13.85
2019-05-20T04:45:58.388Z,12.90
2019-05-20T04:48:35.625Z,13.40
2019-05-20T04:51:14.560Z,13.70
2019-05-20T04:53:52.565Z,12.37
2019-05-20T04:56:30.030Z,12.75
2019-05-20T04:59:07.411Z,13.43
2019-05-20T05:01:44.717Z,13.22
2019-05-20T05:04:22.687Z,13.35
2019-05-20T05:07:01.956Z,14.53
2019-05-20T05:09:39.289Z,14.80
2019-05-20T05:12:16.723Z,15.80
2019-05-20T05:14:55.101Z,14.33
2019-05-20T05:17:32.915Z,14.43
2019-05-20T05:20:17.690Z,14.53
2019-05-20T05:22:50.024Z,14.75
2019-05-20T05:25:27.754Z,15.20
2019-05-20T05:28:05.354Z,14.47
2019-05-20T05:30:43.334Z,14.63
2019-05-20T05:33:21.248Z,14.90
2019-05-20T05:35:59.143Z,14.68
2019-05-20T05:38:38.934Z,15.23
2019-05-20T05:41:16.244Z,15.68
2019-05-20T05:43:53.639Z,14.90
2019-05-20T05:46:32.706Z,14.58
2019-05-20T05:49:10.547Z,14.30
2019-05-20T05:51:47.066Z,15.18
2019-05-20T05:54:24.214Z,15.18
2019-05-20T05:57:02.471Z,14.60
2019-05-20T05:59:41.564Z,15.38
2019-05-20T06:02:19.228Z,20.65
2019-05-20T06:04:57.432Z,20.48
2019-05-20T06:07:38.284Z,18.07
2019-05-20T06:10:16.743Z,19.40
2019-05-20T06:12:53.851Z,18.87
2019-05-20T06:15:31.609Z,18.42
2019-05-20T06:18:09.182Z,17.48
2019-05-20T06:20:46.364Z,18.00
2019-05-20T06:23:23.903Z,28.02
2019-05-20T06:26:01.436Z,22.00
2019-05-20T06:28:39.080Z,22.32
2019-05-20T06:31:16.937Z,20.90
2019-05-20T06:33:54.222Z,24.60
2019-05-20T06:36:34.318Z,21.10
2019-05-20T06:39:15.802Z,22.22
2019-05-20T06:41:54.578Z,20.75
2019-05-20T06:44:31.907Z,21.77
2019-05-20T06:47:10.269Z,21.05
2019-05-20T06:49:48.021Z,22.20
2019-05-20T06:52:35.521Z,21.50
2019-05-20T06:55:05.357Z,22.15
2019-05-20T06:57:42.803Z,22.65
2019-05-20T07:00:25.581Z,22.77
2019-05-20T07:03:03.114Z,20.02
2019-05-20T07:05:40.301Z,20.17
2019-05-20T07:08:17.469Z,21.65
2019-05-20T07:10:55.221Z,21.40
2019-05-20T07:13:33.682Z,20.27
2019-05-20T07:16:11.183Z,19.42
2019-05-20T07:18:48.830Z,20.15
2019-05-20T07:21:26.530Z,20.48
2019-05-20T07:24:04.598Z,18.85
2019-05-20T07:26:42.083Z,21.15
2019-05-20T07:29:19.592Z,21.30
2019-05-20T07:31:57.146Z,21.97
2019-05-20T07:34:34.381Z,21.40
2019-05-20T07:37:11.670Z,19.95
2019-05-20T07:39:49.422Z,23.38
2019-05-20T07:42:27.478Z,20.92
2019-05-20T07:45:05.689Z,19.37
2019-05-20T07:47:44.587Z,19.82
2019-05-20T07:50:22.389Z,19.42
2019-05-20T07:53:00.852Z,19.80
2019-05-20T07:55:41.835Z,20.27
2019-05-20T07:58:20.218Z,19.20
2019-05-20T08:00:57.477Z,19.57
2019-05-20T08:03:38.526Z,20.05
2019-05-20T08:06:15.143Z,18.98
2019-05-20T08:08:52.098Z,17.15
2019-05-20T08:11:29.192Z,18.82
2019-05-20T08:14:07.762Z,18.85
2019-05-20T08:16:47.630Z,17.95
2019-05-20T08:19:24.730Z,18.17
2019-05-20T08:22:03.520Z,16.95
2019-05-20T08:24:41.531Z,17.70
2019-05-20T08:27:18.962Z,16.60
2019-05-20T08:29:57.469Z,16.35
2019-05-20T08:32:35.589Z,15.72
2019-05-20T08:35:13.501Z,17.10
2019-05-20T08:37:50.947Z,16.73
2019-05-20T08:40:29.895Z,16.67
2019-05-20T08:43:07.097Z,16.70
2019-05-20T08:45:45.793Z,15.30
2019-05-20T08:48:24.136Z,15.30
2019-05-20T08:51:02.290Z,14.30
2019-05-20T08:53:39.954Z,14.30
2019-05-20T08:56:17.487Z,11.78
2019-05-20T08:58:54.870Z,11.05
2019-05-20T09:01:33.206Z,14.00
2019-05-20T09:04:11.344Z,13.95
2019-05-20T09:06:48.843Z,12.47
2019-05-20T09:09:26.753Z,11.40
2019-05-20T09:12:11.373Z,14.03
2019-05-20T09:14:48.454Z,12.67
2019-05-20T09:17:25.698Z,11.10
2019-05-20T09:20:02.956Z,11.08
2019-05-20T09:22:41.772Z,10.23
2019-05-20T09:25:21.203Z,12.55
2019-05-20T09:27:59.062Z,13.43
2019-05-20T09:30:37.208Z,11.70
2019-05-20T09:33:15.021Z,11.35
2019-05-20T09:35:53.739Z,11.30
2019-05-20T09:38:31.476Z,11.75
2019-05-20T09:41:09.059Z,12.33
2019-05-20T09:43:47.019Z,12.23
2019-05-20T09:46:24.197Z,11.90
2019-05-20T09:49:02.064Z,11.93
2019-05-20T09:51:39.293Z,13.03
2019-05-20T09:54:17.772Z,12.80
2019-05-20T09:56:55.105Z,11.97
2019-05-20T09:59:42.495Z,12.90
2019-05-20T10:02:11.118Z,11.83
2019-05-20T10:04:49.477Z,11.95
2019-05-20T10:07:28.103Z,13.72
2019-05-20T10:10:05.463Z,11.22
2019-05-20T10:12:46.494Z,12.05
2019-05-20T10:15:22.274Z,11.83
2019-05-20T10:17:59.863Z,12.65
2019-05-20T10:20:37.647Z,10.80
2019-05-20T10:23:15.925Z,10.08
2019-05-20T10:25:53.938Z,9.15
2019-05-20T10:28:31.482Z,9.00
2019-05-20T10:31:10.235Z,9.55
2019-05-20T10:33:47.655Z,15.45
2019-05-20T10:36:26.518Z,9.10
2019-05-20T10:39:07.792Z,10.05
2019-05-20T10:41:45.650Z,9.88
2019-05-20T10:44:22.980Z,10.72
2019-05-20T10:47:00.711Z,10.78
2019-05-20T10:49:37.810Z,10.85
2019-05-20T10:52:15.144Z,11.03
2019-05-20T10:54:52.441Z,10.53
2019-05-20T10:57:31.049Z,11.28
2019-05-20T11:00:08.873Z,10.18
2019-05-20T11:02:47.226Z,10.82
2019-05-20T11:05:24.656Z,11.05
2019-05-20T11:08:03.587Z,11.43
2019-05-20T11:10:42.413Z,12.05
2019-05-20T11:13:20.549Z,11.70
2019-05-20T11:15:58.266Z,12.18
2019-05-20T11:18:36.733Z,12.00
2019-05-20T11:21:13.761Z,12.43
2019-05-20T11:23:51.177Z,13.53
2019-05-20T11:26:28.362Z,14.33
2019-05-20T11:29:06.321Z,14.20
2019-05-20T11:31:43.976Z,14.10
2019-05-20T11:34:21.072Z,14.90
2019-05-20T11:37:00.504Z,21.85
2019-05-20T11:39:39.973Z,24.55
2019-05-20T11:42:19.804Z,22.07
2019-05-20T11:44:57.432Z,17.65
2019-05-20T11:47:35.377Z,16.42
2019-05-20T11:50:14.349Z,15.65
2019-05-20T11:52:51.703Z,14.73
2019-05-20T11:55:29.788Z,14.47
2019-05-20T11:58:15.755Z,14.35
2019-05-20T12:00:46.682Z,14.28
2019-05-20T12:03:23.768Z,14.15
2019-05-20T12:06:01.560Z,14.30
2019-05-20T12:08:38.894Z,14.05
2019-05-20T12:11:16.866Z,14.45
2019-05-20T12:13:55.559Z,14.33
2019-05-20T12:16:33.632Z,15.43
2019-05-20T12:19:12.024Z,15.05
2019-05-20T12:21:50.293Z,14.18
2019-05-20T12:24:27.367Z,15.85
2019-05-20T12:27:04.672Z,15.55
2019-05-20T12:29:41.985Z,16.37
2019-05-20T12:32:20.315Z,16.48
2019-05-20T12:34:57.761Z,17.05
2019-05-20T12:37:35.567Z,16.30
2019-05-20T12:40:14.064Z,15.25
2019-05-20T12:42:52.112Z,15.78
2019-05-20T12:45:30.575Z,15.58
2019-05-20T12:48:07.953Z,15.98
2019-05-20T12:50:45.441Z,15.68
2019-05-20T12:53:23.551Z,16.02
2019-05-20T12:56:00.911Z,14.70
2019-05-20T12:58:39.587Z,14.83
2019-05-20T13:01:16.839Z,14.07
2019-05-20T13:03:55.292Z,14.33
2019-05-20T13:06:33.268Z,14.33
2019-05-20T13:09:11.748Z,15.32
2019-05-20T13:11:49.141Z,14.45
2019-05-20T13:14:26.928Z,14.18
2019-05-20T13:17:05.696Z,16.42
2019-05-20T13:19:43.304Z,16.15
2019-05-20T13:22:20.721Z,15.32
2019-05-20T13:24:59.654Z,15.65
2019-05-20T13:27:37.140Z,14.13
2019-05-20T13:30:14.835Z,15.25
2019-05-20T13:32:52.903Z,13.90
2019-05-20T13:35:30.964Z,13.83
2019-05-20T13:38:08.480Z,14.07
2019-05-20T13:40:47.316Z,14.53
2019-05-20T13:43:24.366Z,14.87
2019-05-20T13:46:02.692Z,14.43
2019-05-20T13:48:41.072Z,14.53
2019-05-20T13:51:18.680Z,15.70
2019-05-20T13:53:56.161Z,14.80
2019-05-20T13:56:34.686Z,13.78
2019-05-20T13:59:12.125Z,14.05
2019-05-20T14:01:49.846Z,13.98
2019-05-20T14:04:27.295Z,27.37
2019-05-20T14:07:05.374Z,26.25
2019-05-20T14:09:43.085Z,16.12
2019-05-20T14:12:20.495Z,13.83
2019-05-20T14:14:57.591Z,13.88
2019-05-20T14:17:36.878Z,13.85
2019-05-20T14:20:15.780Z,14.10
2019-05-20T14:22:53.057Z,14.07
2019-05-20T14:25:31.725Z,13.72
2019-05-20T14:28:09.403Z,14.10
2019-05-20T14:30:46.384Z,13.62
2019-05-20T14:33:24.635Z,13.80
2019-05-20T14:36:03.406Z,13.85
2019-05-20T14:38:41.676Z,13.65
2019-05-20T14:41:21.923Z,13.62
2019-05-20T14:43:58.373Z,13.05
2019-05-20T14:46:36.146Z,13.83
2019-05-20T14:49:14.201Z,13.60
2019-05-20T14:51:53.836Z,13.62
2019-05-20T14:54:31.706Z,13.75
2019-05-20T14:57:09.892Z,14.50
2019-05-20T14:59:47.698Z,14.15
2019-05-20T15:02:25.382Z,14.38
2019-05-20T15:05:02.883Z,14.33
2019-05-20T15:07:40.048Z,15.05
2019-05-20T15:10:18.971Z,15.93
2019-05-20T15:12:56.415Z,14.73
2019-05-20T15:15:35.584Z,15.38
2019-05-20T15:18:13.014Z,15.05
2019-05-20T15:20:51.028Z,14.75
2019-05-20T15:23:29.601Z,14.87
2019-05-20T15:26:07.308Z,15.45
2019-05-20T15:28:44.425Z,15.75
2019-05-20T15:31:22.829Z,15.53
2019-05-20T15:34:00.871Z,16.20
2019-05-20T15:36:38.101Z,15.00
2019-05-20T15:39:15.587Z,15.13
2019-05-20T15:41:53.555Z,16.45
2019-05-20T15:44:30.858Z,17.42
2019-05-20T15:47:08.762Z,16.80
2019-05-20T15:49:45.990Z,16.50
2019-05-20T15:52:24.468Z,15.80
2019-05-20T15:55:02.961Z,15.55
2019-05-20T15:57:40.532Z,15.63
2019-05-20T16:00:18.320Z,15.20
2019-05-20T16:02:56.174Z,15.53
2019-05-20T16:05:33.907Z,16.07
2019-05-20T16:08:11.327Z,16.32
2019-05-20T16:10:48.560Z,16.35
2019-05-20T16:13:26.775Z,15.13
2019-05-20T16:16:04.258Z,16.17
2019-05-20T16:18:42.111Z,14.53
2019-05-20T16:21:19.756Z,15.30
2019-05-20T16:23:57.758Z,15.58
2019-05-20T16:26:36.684Z,15.45
2019-05-20T16:29:14.574Z,15.85
2019-05-20T16:31:52.379Z,16.37
2019-05-20T16:34:31.055Z,15.93
2019-05-20T16:37:08.712Z,15.32
2019-05-20T16:39:46.537Z,15.38
2019-05-20T16:42:24.137Z,16.07
2019-05-20T16:45:02.224Z,16.70
2019-05-20T16:47:40.279Z,15.63
2019-05-20T16:50:19.359Z,15.93
2019-05-20T16:52:57.392Z,15.38
2019-05-20T16:55:42.135Z,16.02
2019-05-20T16:58:26.424Z,15.68
2019-05-20T17:01:03.667Z,14.98
2019-05-20T17:03:41.826Z,16.25
2019-05-20T17:06:19.969Z,15.55
2019-05-20T17:08:57.526Z,16.42
2019-05-20T17:11:35.348Z,14.93
2019-05-20T17:14:12.478Z,16.50
2019-05-20T17:16:51.051Z,16.17
2019-05-20T17:19:28.531Z,15.13
2019-05-20T17:22:06.210Z,14.70
2019-05-20T17:24:43.605Z,13.70
2019-05-20T17:27:21.657Z,12.93
2019-05-20T17:30:00.433Z,11.68
2019-05-20T17:32:39.398Z,12.50
2019-05-20T17:35:17.728Z,11.57
2019-05-20T17:37:56.556Z,11.33
2019-05-20T17:40:34.306Z,10.43
2019-05-20T17:43:12.262Z,10.28
2019-05-20T17:45:49.630Z,11.48
2019-05-20T17:48:28.811Z,10.25
2019-05-20T17:51:06.530Z,9.98
2019-05-20T17:53:44.036Z,11.18
2019-05-20T17:56:24.057Z,11.00
2019-05-20T17:59:01.664Z,10.08
2019-05-20T18:01:40.765Z,9.80
2019-05-20T18:04:18.471Z,9.95
2019-05-20T18:06:55.839Z,9.33
2019-05-20T18:09:36.609Z,8.58
2019-05-20T18:12:14.134Z,7.95
2019-05-20T18:14:56.912Z,8.88
2019-05-20T18:17:34.376Z,8.58
2019-05-20T18:20:14.120Z,9.30
2019-05-20T18:22:51.091Z,9.10
2019-05-20T18:25:28.943Z,9.18
2019-05-20T18:28:06.355Z,9.10
2019-05-20T18:30:44.167Z,8.48
2019-05-20T18:33:25.147Z,8.43
2019-05-20T18:36:03.034Z,8.75
2019-05-20T18:38:41.873Z,8.58
2019-05-20T18:41:19.861Z,8.15
2019-05-20T18:43:58.305Z,8.93
2019-05-20T18:46:37.083Z,8.10
2019-05-20T18:49:14.337Z,8.45
2019-05-20T18:51:52.414Z,8.13
2019-05-20T18:54:30.140Z,9.20
2019-05-20T18:57:07.488Z,10.08
2019-05-20T18:59:44.698Z,9.50
2019-05-20T19:02:48.857Z,10.32
2019-05-20T19:05:27.444Z,10.53
2019-05-20T19:08:05.987Z,9.93
2019-05-20T19:10:43.725Z,9.08
2019-05-20T19:13:21.809Z,8.53
2019-05-20T19:15:59.043Z,8.53
2019-05-20T19:18:39.263Z,8.63
2019-05-20T19:21:16.765Z,8.28
2019-05-20T19:23:54.794Z,9.40
2019-05-20T19:26:32.522Z,8.20
2019-05-20T19:29:10.066Z,8.75
2019-05-20T19:32:00.692Z,8.85
2019-05-20T19:34:29.661Z,8.80
2019-05-20T19:37:08.544Z,8.35
2019-05-20T19:39:46.228Z,8.68
2019-05-20T19:42:24.266Z,9.00
2019-05-20T19:45:02.086Z,9.45
2019-05-20T19:47:40.944Z,9.30
2019-05-20T19:50:18.640Z,9.28
2019-05-20T19:52:55.921Z,8.43
2019-05-20T19:55:33.865Z,9.03
2019-05-20T19:58:11.149Z,9.40
2019-05-20T20:00:48.967Z,9.63
2019-05-20T20:03:26.540Z,10.15
2019-05-20T20:06:04.440Z,8.95
2019-05-20T20:08:43.476Z,9.00
2019-05-20T20:11:21.545Z,9.70
2019-05-20T20:13:58.446Z,9.63
2019-05-20T20:16:36.544Z,10.25
2019-05-20T20:19:13.954Z,10.68
2019-05-20T20:21:51.560Z,10.85
2019-05-20T20:24:29.341Z,10.90
2019-05-20T20:27:08.122Z,11.55
2019-05-20T20:29:45.626Z,10.68
2019-05-20T20:32:37.526Z,11.38
2019-05-20T20:35:06.435Z,10.98
2019-05-20T20:37:45.081Z,9.70
2019-05-20T20:40:24.264Z,9.65
2019-05-20T20:43:01.679Z,10.38
2019-05-20T20:45:39.375Z,10.63
2019-05-20T20:48:17.348Z,10.55
2019-05-20T20:50:54.392Z,10.58
2019-05-20T20:53:31.619Z,11.53
2019-05-20T20:56:22.727Z,10.78
2019-05-20T20:58:48.176Z,10.82
2019-05-20T21:01:25.944Z,10.35
2019-05-20T21:04:06.099Z,10.90
2019-05-20T21:06:45.803Z,11.08
2019-05-20T21:09:24.001Z,10.53
2019-05-20T21:12:02.801Z,11.20
2019-05-20T21:14:40.653Z,10.88
2019-05-20T21:17:19.340Z,10.82
2019-05-20T21:19:59.816Z,11.00
2019-05-20T21:22:37.354Z,13.50
2019-05-20T21:25:15.238Z,13.88
2019-05-20T21:27:53.007Z,11.85
2019-05-20T21:30:30.650Z,11.55
2019-05-20T21:33:09.611Z,12.45
2019-05-20T21:35:46.928Z,10.65
2019-05-20T21:38:25.964Z,11.93
2019-05-20T21:41:03.958Z,11.03
2019-05-20T21:43:42.436Z,10.72
2019-05-20T21:46:20.136Z,10.45
2019-05-20T21:48:57.787Z,11.38
2019-05-20T21:51:35.751Z,10.35
2019-05-20T21:54:16.685Z,10.72
2019-05-20T21:56:53.968Z,10.53
2019-05-20T21:59:31.611Z,10.90
2019-05-20T22:02:09.895Z,10.32
2019-05-20T22:04:48.795Z,10.78
2019-05-20T22:07:26.457Z,10.65
2019-05-20T22:10:03.713Z,10.50
2019-05-20T22:12:43.328Z,16.80
2019-05-20T22:15:22.130Z,10.45
2019-05-20T22:18:00.170Z,9.70
2019-05-20T22:20:38.341Z,9.83
2019-05-20T22:23:47.928Z,11.43
2019-05-20T22:26:25.061Z,10.63
2019-05-20T22:29:02.621Z,11.53
2019-05-20T22:31:40.013Z,11.48
2019-05-20T22:34:19.549Z,12.20
2019-05-20T22:36:56.937Z,11.75
2019-05-20T22:39:35.384Z,12.25
2019-05-20T22:42:12.958Z,13.03
2019-05-20T22:44:51.333Z,11.55
2019-05-20T22:47:29.484Z,14.55
2019-05-20T22:50:09.421Z,14.00
2019-05-20T22:52:46.962Z,14.30
2019-05-20T22:55:28.571Z,13.10
2019-05-20T22:58:06.734Z,13.95
2019-05-20T23:00:44.209Z,13.28
2019-05-20T23:03:21.821Z,12.78
2019-05-20T23:05:59.884Z,12.98
2019-05-20T23:08:38.620Z,13.05
2019-05-20T23:11:20.207Z,12.75
2019-05-20T23:13:59.254Z,13.45
2019-05-20T23:16:37.345Z,13.80
2019-05-20T23:19:15.902Z,13.28
2019-05-20T23:21:53.545Z,12.40
2019-05-20T23:24:30.990Z,12.35
2019-05-20T23:27:09.791Z,12.82
2019-05-20T23:29:46.924Z,11.78
2019-05-20T23:32:24.666Z,12.55
2019-05-20T23:35:02.254Z,12.90
2019-05-20T23:37:41.356Z,12.35
2019-05-20T23:40:19.463Z,12.70
2019-05-20T23:42:56.950Z,12.68
2019-05-20T23:45:34.008Z,11.83
2019-05-20T23:48:12.648Z,11.95
2019-05-20T23:50:51.209Z,12.63
2019-05-20T23:53:29.476Z,11.85
2019-05-20T23:56:06.881Z,12.45
2019-05-20T23:58:45.302Z,13.13
